Time;durP1;ratioP1;P1;durP2;ratioP2;P2;SDS_P1;SDS_P2;PMS_P1;PMS_P2;Temp;Humidity;BMP_temperature;BMP_pressure;BME280_temperature;BME280_humidity;BME280_pressure;Samples;Min_cycle;Max_cycle;Signal;HPM_P1;HPM_P2
2022/02/17 00:00:43;;;;;;;36.00;10.52;;;10.90;94.20;;;;;;5013227;28;20049;-67
2022/02/17 00:03:13;;;;;;;38.03;10.82;;;10.90;94.50;;;;;;5028486;28;20058;-67
2022/02/17 00:05:40;;;;;;;42.03;10.82;;;10.90;94.60;;;;;;5012337;28;20049;-67
2022/02/17 00:08:07;;;;;;;42.15;10.95;;;10.90;94.70;;;;;;5011346;28;20394;-67
2022/02/17 00:10:34;;;;;;;36.10;9.95;;;10.80;94.80;;;;;;5012471;28;20085;-66
2022/02/17 00:13:01;;;;;;;30.20;9.05;;;10.80;94.60;;;;;;5012663;28;20093;-67
2022/02/17 00:15:28;;;;;;;32.50;8.77;;;10.80;94.50;;;;;;5027818;28;20049;-67
2022/02/17 00:17:56;;;;;;;37.55;10.02;;;10.70;94.90;;;;;;5012185;28;20046;-67
2022/02/17 00:20:23;;;;;;;39.05;10.25;;;10.70;94.60;;;;;;5011905;28;20060;-66
2022/02/17 00:22:50;;;;;;;40.75;11.63;;;10.70;94.80;;;;;;4995757;28;20057;-66
2022/02/17 00:25:17;;;;;;;36.38;10.45;;;10.60;95.10;;;;;;5013493;28;20386;-67
2022/02/17 00:27:44;;;;;;;40.85;11.07;;;10.70;95.30;;;;;;5011357;28;20049;-66
2022/02/17 00:30:11;;;;;;;32.90;8.85;;;10.60;95.50;;;;;;4995389;28;20050;-67
2022/02/17 00:32:39;;;;;;;34.03;9.82;;;10.60;96.10;;;;;;5011032;28;20045;-67
2022/02/17 00:35:06;;;;;;;31.77;10.23;;;10.60;96.50;;;;;;5011693;28;20124;-67
2022/02/17 00:37:33;;;;;;;36.53;11.00;;;10.70;96.70;;;;;;5012728;28;20522;-66
2022/02/17 00:40:01;;;;;;;35.25;9.73;;;10.70;96.90;;;;;;5011792;28;20054;-66
2022/02/17 00:42:27;;;;;;;44.08;10.48;;;10.70;96.60;;;;;;5010997;28;20057;-66
2022/02/17 00:44:54;;;;;;;44.70;11.60;;;10.70;97.50;;;;;;5011780;28;20050;-66
2022/02/17 00:47:21;;;;;;;39.03;11.65;;;10.70;97.80;;;;;;5012434;28;20054;-67
2022/02/17 00:49:48;;;;;;;45.38;11.85;;;10.70;97.80;;;;;;5012788;28;20046;-66
2022/02/17 00:52:15;;;;;;;40.92;10.63;;;10.70;98.90;;;;;;5011397;28;20050;-67
2022/02/17 00:54:42;;;;;;;42.92;11.57;;;10.70;98.20;;;;;;4979359;28;20042;-66
2022/02/17 00:57:09;;;;;;;39.72;10.32;;;10.70;98.60;;;;;;5011547;28;20046;-66
2022/02/17 00:59:36;;;;;;;42.70;12.63;;;10.80;97.80;;;;;;5000021;28;20133;-67
2022/02/17 01:02:03;;;;;;;46.53;12.82;;;10.80;97.80;;;;;;5018884;28;20042;-67
2022/02/17 01:04:30;;;;;;;42.38;11.73;;;10.80;96.90;;;;;;5011410;28;20112;-67
2022/02/17 01:06:57;;;;;;;44.85;12.85;;;10.80;97.20;;;;;;5021615;28;20067;-67
2022/02/17 01:09:33;;;;;;;39.53;10.70;;;10.80;96.40;;;;;;4998522;28;20074;-67
2022/02/17 01:12:00;;;;;;;44.10;12.98;;;10.80;96.50;;;;;;5018445;28;20509;-66
2022/02/17 01:14:29;;;;;;;38.10;10.05;;;10.80;96.40;;;;;;5000133;28;20053;-66
2022/02/17 01:16:56;;;;;;;35.55;12.55;;;10.80;95.80;;;;;;5010800;28;20058;-67
2022/02/17 01:19:23;;;;;;;42.15;12.70;;;10.80;94.80;;;;;;5011429;28;20042;-66
2022/02/17 01:21:53;;;;;;;42.58;11.15;;;10.80;94.50;;;;;;5010557;28;21579;-66
2022/02/17 01:24:20;;;;;;;42.78;11.85;;;10.80;95.10;;;;;;5011057;28;20041;-66
2022/02/17 01:26:48;;;;;;;39.92;12.55;;;10.80;95.00;;;;;;5010907;28;20080;-67
2022/02/17 01:29:15;;;;;;;37.47;10.02;;;10.80;94.30;;;;;;5010739;28;20050;-67
2022/02/17 01:31:41;;;;;;;40.70;12.50;;;10.90;94.20;;;;;;5009113;28;20045;-67
2022/02/17 01:34:08;;;;;;;49.45;12.82;;;10.90;94.40;;;;;;5010773;28;20490;-66
2022/02/17 01:36:35;;;;;;;34.00;10.65;;;10.90;94.20;;;;;;5010536;28;20041;-67
2022/02/17 01:39:02;;;;;;;48.58;13.35;;;10.90;93.70;;;;;;5011271;28;20054;-67
2022/02/17 01:41:29;;;;;;;45.78;14.98;;;10.90;94.00;;;;;;5012243;28;20140;-66
2022/02/17 01:44:02;;;;;;;45.50;12.48;;;10.90;94.00;;;;;;5010693;28;20050;-67
2022/02/17 01:46:38;;;;;;;35.78;11.32;;;10.90;93.70;;;;;;5010845;28;20129;-67
2022/02/17 01:49:06;;;;;;;43.03;10.88;;;10.90;93.20;;;;;;5011026;28;20046;-66
2022/02/17 01:51:33;;;;;;;41.55;11.73;;;10.90;92.60;;;;;;5014115;28;20061;-66
2022/02/17 01:54:01;;;;;;;36.88;10.48;;;10.90;92.50;;;;;;5011029;28;20061;-67
2022/02/17 01:56:28;;;;;;;33.40;11.02;;;10.90;92.40;;;;;;5026358;28;20046;-66
2022/02/17 01:58:55;;;;;;;43.45;12.10;;;10.80;91.80;;;;;;5031728;28;20065;-67
2022/02/17 02:01:22;;;;;;;36.97;10.55;;;10.80;92.00;;;;;;5029874;28;20056;-67
2022/02/17 02:03:49;;;;;;;33.97;10.48;;;10.80;91.70;;;;;;5020581;28;20053;-66
2022/02/17 02:06:16;;;;;;;37.13;11.93;;;10.70;92.10;;;;;;5010716;28;20053;-67
2022/02/17 02:08:44;;;;;;;52.10;13.57;;;10.70;91.90;;;;;;5011600;28;20066;-67
2022/02/17 02:11:11;;;;;;;45.03;11.27;;;10.60;91.90;;;;;;5002758;28;20050;-66
2022/02/17 02:13:38;;;;;;;34.88;12.20;;;10.60;92.00;;;;;;5011984;28;20045;-66
2022/02/17 02:16:06;;;;;;;33.38;10.40;;;10.50;92.10;;;;;;5011276;28;20049;-67
2022/02/17 02:18:36;;;;;;;37.00;10.20;;;10.50;92.30;;;;;;5007087;28;20511;-67
2022/02/17 02:21:03;;;;;;;39.65;11.18;;;10.40;91.90;;;;;;5019079;28;20072;-67
2022/02/17 02:23:31;;;;;;;41.85;12.20;;;10.40;92.20;;;;;;5015349;28;20052;-66
2022/02/17 02:25:58;;;;;;;42.65;12.82;;;10.40;91.80;;;;;;5015078;28;20053;-66
2022/02/17 02:28:27;;;;;;;43.72;11.25;;;10.40;92.40;;;;;;5027329;28;20056;-67
2022/02/17 02:30:54;;;;;;;53.57;12.67;;;10.40;92.20;;;;;;5030340;28;20048;-67
2022/02/17 02:33:21;;;;;;;36.28;11.82;;;10.30;92.20;;;;;;5017282;28;20045;-66
2022/02/17 02:35:49;;;;;;;50.72;12.50;;;10.30;92.30;;;;;;5016305;28;20052;-66
2022/02/17 02:38:16;;;;;;;47.13;12.65;;;10.20;92.30;;;;;;5021876;28;20049;-66
2022/02/17 02:40:43;;;;;;;42.17;11.10;;;10.20;92.40;;;;;;5022596;28;20049;-66
2022/02/17 02:43:11;;;;;;;44.90;11.25;;;10.20;92.00;;;;;;5025998;28;20496;-66
2022/02/17 02:45:38;;;;;;;43.20;12.57;;;10.10;92.10;;;;;;5021856;28;20458;-66
2022/02/17 02:48:06;;;;;;;39.50;11.05;;;10.10;91.80;;;;;;5014461;28;20195;-67
2022/02/17 02:50:34;;;;;;;34.83;10.50;;;10.10;92.20;;;;;;5023479;28;20062;-66
2022/02/17 02:53:01;;;;;;;48.75;12.18;;;10.10;92.00;;;;;;5027951;28;20060;-66
2022/02/17 02:55:29;;;;;;;35.67;9.80;;;10.00;92.10;;;;;;5031068;28;20049;-66
2022/02/17 02:57:56;;;;;;;42.13;11.73;;;10.00;91.80;;;;;;5030096;28;20046;-67
2022/02/17 03:00:23;;;;;;;45.50;12.32;;;10.00;92.10;;;;;;5021834;28;20417;-67
2022/02/17 03:02:50;;;;;;;44.70;12.55;;;10.00;92.30;;;;;;5021603;28;20041;-67
2022/02/17 03:05:17;;;;;;;45.67;11.13;;;10.00;91.60;;;;;;5018952;28;20056;-67
2022/02/17 03:07:44;;;;;;;34.70;10.35;;;10.00;92.10;;;;;;5024495;28;20046;-66
2022/02/17 03:10:11;;;;;;;46.20;11.98;;;10.00;91.50;;;;;;5013055;28;20057;-67
2022/02/17 03:12:38;;;;;;;42.50;11.70;;;10.00;92.00;;;;;;5014024;28;20050;-66
2022/02/17 03:15:06;;;;;;;47.50;10.85;;;10.00;91.80;;;;;;5012575;28;20057;-67
2022/02/17 03:17:33;;;;;;;32.05;10.40;;;9.90;91.80;;;;;;5013235;28;20152;-66
2022/02/17 03:20:00;;;;;;;37.40;9.88;;;9.90;92.00;;;;;;5012496;28;20540;-66
2022/02/17 03:22:27;;;;;;;49.97;13.73;;;9.90;92.20;;;;;;5013380;28;20050;-67
2022/02/17 03:24:54;;;;;;;38.22;9.70;;;9.90;92.40;;;;;;5029163;28;20046;-66
2022/02/17 03:27:21;;;;;;;39.97;13.48;;;9.90;92.20;;;;;;5045243;28;20485;-66
2022/02/17 03:29:48;;;;;;;52.97;11.75;;;9.80;92.20;;;;;;5011196;28;20057;-66
2022/02/17 03:32:15;;;;;;;41.10;10.48;;;9.80;92.40;;;;;;5013397;28;20050;-66
2022/02/17 03:34:43;;;;;;;39.00;11.52;;;9.80;92.40;;;;;;5012519;28;20061;-66
2022/02/17 03:37:10;;;;;;;37.22;10.70;;;9.80;92.50;;;;;;5012242;28;20050;-66
2022/02/17 03:39:37;;;;;;;44.75;10.95;;;9.80;92.50;;;;;;5014260;28;20054;-66
2022/02/17 03:42:04;;;;;;;41.58;9.95;;;9.70;92.60;;;;;;5021546;28;20049;-67
2022/02/17 03:44:31;;;;;;;36.97;9.90;;;9.70;92.40;;;;;;5030313;28;20057;-66
2022/02/17 03:46:58;;;;;;;45.58;11.95;;;9.70;92.40;;;;;;5011254;28;20523;-66
2022/02/17 03:49:25;;;;;;;38.15;11.07;;;9.70;92.40;;;;;;5013156;28;20057;-67
2022/02/17 03:51:52;;;;;;;42.80;11.63;;;9.70;92.00;;;;;;5022177;28;20056;-66
2022/02/17 03:54:19;;;;;;;40.70;11.48;;;9.70;92.50;;;;;;5032031;28;20049;-66
2022/02/17 03:56:46;;;;;;;45.08;11.77;;;9.70;92.10;;;;;;5014750;28;20486;-67
2022/02/17 03:59:13;;;;;;;42.15;11.60;;;9.70;92.60;;;;;;5029955;28;20038;-66
2022/02/17 04:01:40;;;;;;;40.22;11.63;;;9.70;92.10;;;;;;5018549;28;20053;-66
2022/02/17 04:04:09;;;;;;;40.20;9.35;;;9.70;92.50;;;;;;5005720;28;20069;-67
2022/02/17 04:06:36;;;;;;;35.70;13.63;;;9.60;92.00;;;;;;5030971;28;20049;-66
2022/02/17 04:09:03;;;;;;;37.10;10.52;;;9.60;92.10;;;;;;5029287;28;20060;-66
2022/02/17 04:11:31;;;;;;;35.70;11.15;;;9.60;92.60;;;;;;5026562;28;20049;-66
2022/02/17 04:14:00;;;;;;;34.33;9.75;;;9.60;91.80;;;;;;5014644;28;20128;-66
2022/02/17 04:16:29;;;;;;;41.13;11.40;;;9.60;92.10;;;;;;5003616;28;20050;-67
2022/02/17 04:18:57;;;;;;;38.60;9.98;;;9.60;92.40;;;;;;5032158;28;20055;-67
2022/02/17 04:21:25;;;;;;;67.65;37.20;;;9.50;91.90;;;;;;5021912;28;20053;-64
2022/02/17 04:23:52;;;;;;;225.65;166.88;;;9.60;95.00;;;;;;5021552;28;20107;-67
2022/02/17 04:26:19;;;;;;;50.55;19.65;;;9.70;92.70;;;;;;5030484;28;20053;-64
2022/02/17 04:28:46;;;;;;;36.08;10.93;;;9.70;92.00;;;;;;5014860;28;20054;-63
2022/02/17 04:31:14;;;;;;;39.25;11.02;;;9.60;92.00;;;;;;5010522;28;20072;-63
2022/02/17 04:33:41;;;;;;;40.60;8.52;;;9.60;91.80;;;;;;5011662;28;20053;-63
2022/02/17 04:36:08;;;;;;;40.20;10.60;;;9.50;92.10;;;;;;5028143;28;20104;-62
2022/02/17 04:38:35;;;;;;;37.72;11.27;;;9.50;92.10;;;;;;5032450;28;20045;-63
2022/02/17 04:43:47;;;;;;;35.17;10.45;;;9.50;93.10;;;;;;5000112;28;20061;-63
2022/02/17 04:46:14;;;;;;;31.45;8.70;;;9.40;93.10;;;;;;5016944;28;20046;-63
2022/02/17 04:48:41;;;;;;;28.75;9.20;;;9.50;93.20;;;;;;5015769;28;20065;-62
2022/02/17 04:51:11;;;;;;;33.90;9.50;;;9.50;93.60;;;;;;5011196;28;20053;-62
2022/02/17 04:53:38;;;;;;;34.42;9.48;;;9.50;93.40;;;;;;4994700;28;20085;-63
2022/02/17 04:56:05;;;;;;;38.53;10.43;;;9.50;93.50;;;;;;5012278;28;20149;-64
2022/02/17 04:58:32;;;;;;;41.65;9.52;;;9.50;93.50;;;;;;5010724;28;20042;-63
2022/02/17 05:00:59;;;;;;;34.47;9.15;;;9.50;93.60;;;;;;5010927;28;20068;-63
2022/02/17 05:03:26;;;;;;;27.58;9.70;;;9.50;93.60;;;;;;5010856;28;20050;-64
2022/02/17 05:05:56;;;;;;;32.63;7.97;;;9.50;93.90;;;;;;5010900;28;20145;-63
2022/02/17 05:08:23;;;;;;;40.78;8.63;;;9.50;93.40;;;;;;5042979;28;20046;-63
2022/02/17 05:10:52;;;;;;;37.05;10.40;;;9.50;93.70;;;;;;5026965;28;20184;-63
2022/02/17 05:13:19;;;;;;;38.88;9.48;;;9.50;93.80;;;;;;5009921;28;20509;-63
2022/02/17 05:15:46;;;;;;;33.28;10.35;;;9.60;93.70;;;;;;5011941;28;20050;-63
2022/02/17 05:18:13;;;;;;;30.52;7.40;;;9.60;93.70;;;;;;5011798;28;20065;-63
2022/02/17 05:20:40;;;;;;;28.55;8.77;;;9.60;93.30;;;;;;4994389;28;20042;-63
2022/02/17 05:23:07;;;;;;;28.20;8.02;;;9.60;93.50;;;;;;5022573;28;20481;-63
2022/02/17 05:25:36;;;;;;;28.83;9.43;;;9.60;93.40;;;;;;5028848;28;20052;-63
2022/02/17 05:28:03;;;;;;;30.52;10.15;;;9.60;93.90;;;;;;5042237;28;20058;-62
2022/02/17 05:30:40;;;;;;;34.17;9.68;;;9.60;94.20;;;;;;5010214;28;20046;-63
2022/02/17 05:33:11;;;;;;;28.30;9.68;;;9.60;94.40;;;;;;5011322;28;20052;-63
2022/02/17 05:35:38;;;;;;;30.42;8.18;;;9.60;94.50;;;;;;5013324;28;20390;-62
2022/02/17 05:38:05;;;;;;;34.60;8.80;;;9.60;94.10;;;;;;5027412;28;20050;-63
2022/02/17 05:40:32;;;;;;;32.13;9.77;;;9.50;94.60;;;;;;5020895;28;20042;-63
2022/02/17 05:42:59;;;;;;;32.55;9.50;;;9.50;94.70;;;;;;5018326;28;20054;-63
2022/02/17 05:45:26;;;;;;;36.33;9.85;;;9.50;95.10;;;;;;5021778;28;20064;-63
2022/02/17 05:47:54;;;;;;;31.92;9.57;;;9.40;95.30;;;;;;5013540;28;20129;-63
2022/02/17 05:50:21;;;;;;;35.53;9.27;;;9.30;95.40;;;;;;5029378;28;20096;-63
2022/02/17 05:52:48;;;;;;;34.28;8.02;;;9.30;95.80;;;;;;4996727;28;20054;-62
2022/02/17 05:55:16;;;;;;;31.02;8.80;;;9.30;95.70;;;;;;5027819;28;20053;-63
2022/02/17 05:57:43;;;;;;;32.53;10.23;;;9.20;96.10;;;;;;5032682;28;20512;-63
2022/02/17 06:00:11;;;;;;;37.28;8.85;;;9.30;96.20;;;;;;5001150;28;20498;-62
2022/02/17 06:02:38;;;;;;;27.65;7.35;;;9.20;96.30;;;;;;5030711;28;20052;-62
2022/02/17 06:05:06;;;;;;;39.88;10.52;;;9.20;96.00;;;;;;5032638;28;20532;-62
2022/02/17 06:07:33;;;;;;;29.15;6.70;;;9.20;96.10;;;;;;5016556;28;20489;-62
2022/02/17 06:10:00;;;;;;;23.77;7.78;;;9.20;96.40;;;;;;5016013;28;20090;-62
2022/02/17 06:12:27;;;;;;;38.40;9.05;;;9.20;96.30;;;;;;5012851;28;20057;-62
2022/02/17 06:14:54;;;;;;;31.00;7.32;;;9.10;96.40;;;;;;5027230;28;20042;-62
2022/02/17 06:17:21;;;;;;;32.95;8.50;;;9.20;96.70;;;;;;5014264;28;20049;-62
2022/02/17 06:19:48;;;;;;;28.27;6.57;;;9.10;96.70;;;;;;5013983;28;20498;-62
2022/02/17 06:22:15;;;;;;;31.55;9.02;;;9.10;96.80;;;;;;5027200;28;20052;-62
2022/02/17 06:24:42;;;;;;;26.15;6.90;;;9.10;97.20;;;;;;5018887;28;20484;-62
2022/02/17 06:27:08;;;;;;;34.80;7.07;;;9.00;97.50;;;;;;5013434;28;20358;-62
2022/02/17 06:29:35;;;;;;;22.80;6.80;;;9.00;97.70;;;;;;5013086;28;20042;-62
2022/02/17 06:32:05;;;;;;;28.90;8.45;;;9.00;97.20;;;;;;5012749;28;20374;-62
2022/02/17 06:34:32;;;;;;;;;;;8.90;97.30;;;;;;5015088;28;20046;-63
2022/02/17 06:36:59;;;;;;;23.33;5.78;;;8.90;97.50;;;;;;5030582;28;19925;-62
2022/02/17 06:39:26;;;;;;;34.30;7.40;;;8.90;98.10;;;;;;5008982;28;20058;-63
2022/02/17 06:41:53;;;;;;;24.42;6.78;;;8.80;98.50;;;;;;5015919;28;20469;-62
2022/02/17 06:44:20;;;;;;;25.95;8.02;;;8.80;98.40;;;;;;5028830;28;20049;-63
2022/02/17 06:46:47;;;;;;;25.67;7.72;;;8.80;98.10;;;;;;5014693;28;20050;-63
2022/02/17 06:49:14;;;;;;;24.67;8.10;;;8.80;99.00;;;;;;4986289;28;20050;-62
2022/02/17 06:51:41;;;;;;;25.63;7.10;;;8.70;99.20;;;;;;5017121;28;20053;-63
2022/02/17 06:54:08;;;;;;;20.35;6.45;;;8.70;99.40;;;;;;5015846;28;20462;-63
2022/02/17 06:56:35;;;;;;;29.88;7.30;;;8.70;98.70;;;;;;5014863;28;20046;-63
2022/02/17 06:59:04;;;;;;;25.30;6.35;;;8.60;99.00;;;;;;5017073;28;20128;-63
2022/02/17 07:01:31;;;;;;;27.40;9.80;;;8.60;99.40;;;;;;5002148;28;20126;-63
2022/02/17 07:03:58;;;;;;;929.70;562.38;;;8.60;99.60;;;;;;5043980;28;20052;-62
2022/02/17 07:06:26;;;;;;;76.03;52.95;;;8.60;99.50;;;;;;5015670;28;20050;-69
2022/02/17 07:08:53;;;;;;;41.15;22.63;;;8.60;99.40;;;;;;5012749;28;20657;-68
2022/02/17 07:11:20;;;;;;;35.22;13.00;;;8.60;99.90;;;;;;5029154;28;20049;-69
2022/02/17 07:13:48;;;;;;;29.70;9.43;;;8.60;99.90;;;;;;5011580;28;20060;-66
2022/02/17 07:16:15;;;;;;;27.38;8.10;;;8.50;99.90;;;;;;5001834;28;20050;-68
2022/02/17 07:18:44;;;;;;;19.95;6.30;;;8.50;99.90;;;;;;4999577;28;20049;-68
2022/02/17 07:21:12;;;;;;;27.25;7.35;;;8.50;99.90;;;;;;4993634;28;20046;-68
2022/02/17 07:23:41;;;;;;;21.70;7.05;;;8.50;99.90;;;;;;5006599;28;20050;-67
2022/02/17 07:26:11;;;;;;;20.60;6.93;;;8.50;99.90;;;;;;5012556;28;20061;-68
2022/02/17 07:28:38;;;;;;;57.00;29.25;;;8.50;99.90;;;;;;5021416;28;20053;-69
2022/02/17 07:31:07;;;;;;;29.60;8.98;;;8.50;99.90;;;;;;5010977;28;20042;-69
2022/02/17 07:33:34;;;;;;;23.13;5.50;;;8.50;99.90;;;;;;5031149;28;20054;-69
2022/02/17 07:36:02;;;;;;;22.33;6.90;;;8.50;99.20;;;;;;5030135;28;20038;-69
2022/02/17 07:38:47;;;;;;;22.27;5.80;;;8.50;98.40;;;;;;5012519;28;20108;-69
2022/02/17 07:41:14;;;;;;;19.92;5.10;;;8.50;98.90;;;;;;5012521;28;20060;-68
2022/02/17 07:43:41;;;;;;;19.58;5.43;;;8.50;99.10;;;;;;5011683;28;20081;-65
2022/02/17 07:46:14;;;;;;;18.27;5.47;;;8.50;97.30;;;;;;5011960;28;20100;-66
2022/02/17 07:48:41;;;;;;;24.98;7.75;;;8.50;96.90;;;;;;5019657;28;20140;-65
2022/02/17 07:51:08;;;;;;;15.05;4.70;;;8.50;97.50;;;;;;5013627;28;20053;-66
2022/02/17 07:53:35;;;;;;;21.88;6.85;;;8.50;97.50;;;;;;5003163;28;20037;-66
2022/02/17 07:56:02;;;;;;;23.67;5.25;;;8.50;97.50;;;;;;5032083;28;20045;-66
2022/02/17 07:58:29;;;;;;;19.70;6.30;;;8.50;97.30;;;;;;5027333;28;20462;-66
2022/02/17 08:00:56;;;;;;;32.65;7.15;;;8.50;98.50;;;;;;5043622;28;20050;-67
2022/02/17 08:03:24;;;;;;;15.90;4.75;;;8.50;97.60;;;;;;5028408;28;20052;-67
2022/02/17 08:05:51;;;;;;;16.85;6.13;;;8.50;97.70;;;;;;4996714;28;20070;-66
2022/02/17 08:08:23;;;;;;;14.90;5.05;;;8.50;97.60;;;;;;5012354;28;20402;-66
2022/02/17 08:10:50;;;;;;;18.73;6.47;;;8.50;97.50;;;;;;5015394;28;20046;-68
2022/02/17 08:13:21;;;;;;;18.65;6.22;;;8.50;97.40;;;;;;5025648;28;20161;-68
2022/02/17 08:15:48;;;;;;;29.48;8.15;;;8.50;97.50;;;;;;5004643;28;20108;-68
2022/02/17 08:18:15;;;;;;;23.20;7.40;;;8.50;97.20;;;;;;5014240;28;20054;-68
2022/02/17 08:20:44;;;;;;;21.92;5.78;;;8.50;97.00;;;;;;5043783;28;20104;-70
2022/02/17 08:23:11;;;;;;;21.07;6.70;;;8.50;97.40;;;;;;5011386;28;20713;-69
2022/02/17 08:25:40;;;;;;;23.13;5.35;;;8.60;97.80;;;;;;5021045;28;20046;-69
2022/02/17 08:28:07;;;;;;;25.63;5.15;;;8.60;97.30;;;;;;5024375;28;20054;-68
2022/02/17 08:30:36;;;;;;;13.77;4.35;;;8.60;97.70;;;;;;5014748;28;20060;-66
2022/02/17 08:33:04;;;;;;;31.45;6.13;;;8.70;98.60;;;;;;5013709;28;20549;-66
2022/02/17 08:35:31;;;;;;;22.17;6.55;;;8.70;98.10;;;;;;5017239;28;20052;-66
2022/02/17 08:38:04;;;;;;;24.00;5.75;;;8.70;98.30;;;;;;4996074;28;20108;-65
2022/02/17 08:40:31;;;;;;;25.17;6.30;;;8.70;97.90;;;;;;5043996;28;20045;-66
2022/02/17 08:43:08;;;;;;;22.17;7.40;;;8.70;99.70;;;;;;5016152;28;20132;-66
2022/02/17 08:45:41;;;;;;;19.73;5.60;;;8.70;98.40;;;;;;5037164;28;20046;-67
2022/02/17 08:48:09;;;;;;;72.28;39.78;;;8.80;97.40;;;;;;5012137;28;20085;-68
2022/02/17 08:50:36;;;;;;;28.73;10.20;;;8.80;97.60;;;;;;5022862;28;20045;-65
2022/02/17 08:53:03;;;;;;;33.85;7.32;;;8.90;97.80;;;;;;4994236;28;20058;-67
2022/02/17 08:55:50;;;;;;;19.50;6.50;;;8.90;97.30;;;;;;5022946;28;20124;-68
2022/02/17 08:58:17;;;;;;;20.25;5.05;;;8.90;96.90;;;;;;5013314;28;20049;-68
2022/02/17 09:00:45;;;;;;;19.85;5.65;;;8.90;97.10;;;;;;5021360;28;20052;-68
2022/02/17 09:03:13;;;;;;;20.73;4.97;;;8.90;96.40;;;;;;5015030;28;20074;-68
2022/02/17 09:05:40;;;;;;;17.80;5.30;;;8.90;96.10;;;;;;5012652;28;20046;-69
2022/02/17 09:08:27;;;;;;;19.70;5.03;;;8.90;95.60;;;;;;5015518;28;20052;-68
2022/02/17 09:10:56;;;;;;;17.45;4.53;;;8.90;94.80;;;;;;5013900;28;20046;-68
2022/02/17 09:13:23;;;;;;;13.90;4.05;;;9.00;95.80;;;;;;5021059;28;20081;-68
2022/02/17 09:15:51;;;;;;;15.77;4.22;;;9.00;94.10;;;;;;5026459;28;20057;-67
2022/02/17 09:18:17;;;;;;;17.63;4.10;;;9.00;93.50;;;;;;5037513;28;20050;-68
2022/02/17 09:20:45;;;;;;;29.80;6.63;;;9.10;93.40;;;;;;5041064;28;20100;-70
2022/02/17 09:23:12;;;;;;;13.10;4.07;;;9.20;93.00;;;;;;5010286;28;20046;-66
2022/02/17 09:25:39;;;;;;;12.85;3.85;;;9.30;93.10;;;;;;5017605;28;20508;-66
2022/02/17 09:28:06;;;;;;;18.88;5.10;;;9.40;92.50;;;;;;5017111;28;20041;-67
2022/02/17 09:30:33;;;;;;;20.67;4.82;;;9.50;92.10;;;;;;5005815;28;20104;-67
2022/02/17 09:33:00;;;;;;;28.02;4.70;;;9.60;90.90;;;;;;5013983;28;20049;-67
2022/02/17 09:35:29;;;;;;;15.88;4.60;;;9.60;90.70;;;;;;5014646;28;20474;-67
2022/02/17 09:37:56;;;;;;;15.50;3.60;;;9.70;90.80;;;;;;5014315;28;20058;-49
2022/02/17 09:40:24;;;;;;;93.25;68.90;;;9.80;92.30;;;;;;5015558;28;20072;-66
2022/02/17 09:42:50;;;;;;;20.27;7.38;;;9.90;90.40;;;;;;5014590;28;20061;-65
2022/02/17 09:45:19;;;;;;;14.98;4.68;;;10.00;90.60;;;;;;5016398;28;20046;-65
2022/02/17 09:47:47;;;;;;;17.30;5.45;;;10.00;90.10;;;;;;5017397;28;20050;-66
2022/02/17 09:50:15;;;;;;;10.18;3.88;;;10.10;89.80;;;;;;5019161;28;20054;-66
2022/02/17 09:52:42;;;;;;;13.48;3.55;;;10.10;87.60;;;;;;5013021;28;20061;-67
2022/02/17 09:55:12;;;;;;;13.82;3.85;;;10.10;87.20;;;;;;5013778;28;20064;-66
2022/02/17 09:57:40;;;;;;;9.95;3.30;;;10.00;87.00;;;;;;4996941;28;20531;-66
2022/02/17 10:00:09;;;;;;;8.52;2.70;;;10.10;84.30;;;;;;5013103;28;20490;-66
2022/02/17 10:02:36;;;;;;;7.53;1.90;;;10.00;82.70;;;;;;4997927;28;20046;-65
2022/02/17 10:05:04;;;;;;;6.38;2.50;;;9.90;81.40;;;;;;5013936;28;20401;-67
2022/02/17 10:07:37;;;;;;;7.78;2.53;;;9.80;81.30;;;;;;5014269;28;20137;-66
2022/02/17 10:10:09;;;;;;;7.88;2.17;;;9.80;76.90;;;;;;4997320;28;20061;-66
2022/02/17 10:12:55;;;;;;;16.65;3.92;;;9.60;79.30;;;;;;4998284;28;20052;-66
2022/02/17 10:15:33;;;;;;;9.48;3.10;;;9.60;78.20;;;;;;5030876;28;20148;-68
2022/02/17 10:18:01;;;;;;;8.52;2.17;;;9.60;79.00;;;;;;5014162;28;20488;-66
2022/02/17 10:20:28;;;;;;;9.05;2.50;;;9.60;77.30;;;;;;5015929;28;20060;-66
2022/02/17 10:23:06;;;;;;;10.57;2.63;;;9.50;79.60;;;;;;5013492;28;20050;-66
2022/02/17 10:25:33;;;;;;;9.93;2.70;;;9.60;80.30;;;;;;4997898;28;20046;-65
2022/02/17 10:28:11;;;;;;;6.68;2.25;;;9.60;80.00;;;;;;4998697;28;20068;-66
2022/02/17 10:30:40;;;;;;;13.73;9.13;;;9.70;79.00;;;;;;5010368;28;20386;-66
2022/02/17 10:33:09;;;;;;;11.68;5.70;;;9.80;81.00;;;;;;5013428;28;20046;-66
2022/02/17 10:35:36;;;;;;;9.88;3.05;;;9.90;80.60;;;;;;5014767;28;20053;-66
2022/02/17 10:38:05;;;;;;;8.60;2.67;;;9.90;80.70;;;;;;5012760;28;20056;-66
2022/02/17 10:40:33;;;;;;;10.80;2.53;;;9.90;80.60;;;;;;5012530;28;20069;-66
2022/02/17 10:43:01;;;;;;;15.05;4.57;;;9.90;80.00;;;;;;5013138;28;20736;-66
2022/02/17 10:45:37;;;;;;;11.15;2.83;;;9.90;80.50;;;;;;5027976;28;20053;-66
2022/02/17 10:48:13;;;;;;;10.80;2.80;;;9.90;80.50;;;;;;5012956;28;20046;-66
2022/02/17 10:50:41;;;;;;;11.57;3.33;;;10.00;80.80;;;;;;5014022;28;20636;-66
2022/02/17 10:53:22;;;;;;;13.75;3.67;;;10.10;80.60;;;;;;4997051;28;20061;-66
2022/02/17 10:55:59;;;;;;;10.45;3.17;;;10.20;80.50;;;;;;4980684;28;20061;-66
2022/02/17 10:58:29;;;;;;;9.38;3.25;;;10.30;79.60;;;;;;4996564;28;20081;-66
2022/02/17 11:00:57;;;;;;;13.80;3.20;;;10.40;79.80;;;;;;4980311;28;20042;-66
2022/02/17 11:03:32;;;;;;;7.82;2.35;;;10.50;79.10;;;;;;5013871;28;20136;-66
2022/02/17 11:06:09;;;;;;;9.85;2.50;;;10.50;78.40;;;;;;5013108;28;20088;-66
2022/02/17 11:08:36;;;;;;;12.27;2.60;;;10.50;79.40;;;;;;4996339;28;20441;-66
2022/02/17 11:11:04;;;;;;;15.15;3.75;;;10.60;79.20;;;;;;4996594;28;20046;-66
2022/02/17 11:13:33;;;;;;;12.13;3.28;;;10.70;79.80;;;;;;5014058;28;20060;-67
2022/02/17 11:16:05;;;;;;;10.07;3.05;;;10.70;78.80;;;;;;5012614;28;20053;-64
2022/02/17 11:18:32;;;;;;;12.68;3.00;;;10.60;76.70;;;;;;5012622;28;20042;-67
2022/02/17 11:21:00;;;;;;;7.88;2.38;;;10.50;76.10;;;;;;4996629;28;20078;-66
2022/02/17 11:23:32;;;;;;;10.00;2.65;;;10.50;75.70;;;;;;5013617;28;20409;-66
2022/02/17 11:25:59;;;;;;;8.77;2.88;;;10.60;75.50;;;;;;4980719;28;20057;-66
2022/02/17 11:28:36;;;;;;;9.13;2.92;;;10.50;74.90;;;;;;5013742;28;20046;-66
2022/02/17 11:31:06;;;;;;;10.07;3.13;;;10.40;73.90;;;;;;5013297;28;20057;-66
2022/02/17 11:33:38;;;;;;;13.40;3.47;;;10.40;75.50;;;;;;5011484;28;20050;-66
2022/02/17 11:36:21;;;;;;;11.13;2.57;;;10.50;75.30;;;;;;5012113;28;20049;-66
2022/02/17 11:38:58;;;;;;;8.88;2.55;;;10.40;73.00;;;;;;5013399;28;20053;-66
2022/02/17 11:41:31;;;;;;;6.25;1.60;;;10.40;73.20;;;;;;4995994;28;20062;-66
2022/02/17 11:44:08;;;;;;;14.55;3.90;;;10.40;73.10;;;;;;4995883;28;20057;-66
2022/02/17 11:46:41;;;;;;;9.63;2.50;;;10.40;72.20;;;;;;5012611;28;20050;-69
2022/02/17 11:49:09;;;;;;;9.00;2.88;;;10.40;72.70;;;;;;5013062;28;20053;-66
2022/02/17 11:51:36;;;;;;;6.70;2.28;;;10.40;73.70;;;;;;5011266;28;20482;-64
2022/02/17 11:54:17;;;;;;;7.68;2.75;;;10.40;73.70;;;;;;5012482;28;20050;-69
2022/02/17 11:56:50;;;;;;;21.35;12.07;;;10.40;72.40;;;;;;5011963;28;20060;-67
2022/02/17 11:59:18;;;;;;;15.07;7.50;;;10.40;71.10;;;;;;5008105;28;20053;-66
2022/02/17 12:01:46;;;;;;;8.10;3.22;;;10.40;72.20;;;;;;5016570;28;20497;-65
2022/02/17 12:04:33;;;;;;;8.85;2.85;;;10.40;72.90;;;;;;5023357;28;20046;-65
2022/02/17 12:07:03;;;;;;;8.85;2.60;;;10.40;73.40;;;;;;5013184;28;20076;-66
2022/02/17 12:09:30;;;;;;;11.00;3.58;;;10.40;72.70;;;;;;5010768;28;20494;-64
2022/02/17 12:12:22;;;;;;;10.73;2.90;;;10.40;73.30;;;;;;5017826;28;20046;-67
2022/02/17 12:14:59;;;;;;;13.25;2.40;;;10.50;72.60;;;;;;5014043;28;20054;-67
2022/02/17 12:17:32;;;;;;;6.88;2.78;;;10.50;73.60;;;;;;5009854;28;20046;-69
2022/02/17 12:20:10;;;;;;;15.23;3.25;;;10.50;72.20;;;;;;5012428;28;20161;-65
2022/02/17 12:22:47;;;;;;;11.75;3.33;;;10.50;70.50;;;;;;5021721;28;20550;-65
2022/02/17 12:25:24;;;;;;;8.60;2.10;;;10.60;71.90;;;;;;4997017;28;20046;-65
2022/02/17 12:28:00;;;;;;;;;;;10.80;70.00;;;;;;5012310;28;20057;-67
2022/02/17 12:30:34;;;;;;;12.10;3.03;;;10.80;69.00;;;;;;5008662;28;20269;-70
2022/02/17 12:33:08;;;;;;;10.50;2.72;;;10.90;68.00;;;;;;5011859;28;20046;-70
2022/02/17 12:35:36;;;;;;;8.27;2.58;;;10.90;69.60;;;;;;5013166;28;20049;-72
2022/02/17 12:38:03;;;;;;;12.60;3.55;;;11.00;69.80;;;;;;5012186;28;20050;-73
2022/02/17 12:40:32;;;;;;;7.95;2.60;;;11.00;69.30;;;;;;5021522;28;20504;-70
2022/02/17 12:42:59;;;;;;;9.68;2.33;;;11.10;69.60;;;;;;5000241;28;20054;-71
2022/02/17 12:45:42;;;;;;;6.30;2.35;;;11.20;69.10;;;;;;5039833;28;20515;-72
2022/02/17 12:48:10;;;;;;;11.95;2.88;;;11.30;68.90;;;;;;5026482;28;20064;-71
2022/02/17 12:50:57;;;;;;;12.23;3.22;;;11.30;68.00;;;;;;5011540;28;20046;-71